sensor_id;sensor_type;location;lat;lon;timestamp;pressure;altitude;pressure_sealevel;temperature
61977;BMP280;45905;50.570;10.428;2023-05-13T00:00:24;98139.25;;;12.47
61977;BMP280;45905;50.570;10.428;2023-05-13T00:02:51;98137.66;;;12.46
61977;BMP280;45905;50.570;10.428;2023-05-13T00:05:19;98142.91;;;12.44
61977;BMP280;45905;50.570;10.428;2023-05-13T00:07:46;98134.66;;;12.42
61977;BMP280;45905;50.570;10.428;2023-05-13T00:10:13;98131.13;;;12.43
61977;BMP280;45905;50.570;10.428;2023-05-13T00:12:42;98138.75;;;12.43
61977;BMP280;45905;50.570;10.428;2023-05-13T00:15:10;98134.66;;;12.42
61977;BMP280;45905;50.570;10.428;2023-05-13T00:17:37;98135.75;;;12.40
61977;BMP280;45905;50.570;10.428;2023-05-13T00:20:05;98138.47;;;12.39
61977;BMP280;45905;50.570;10.428;2023-05-13T00:22:33;98143.25;;;12.34
61977;BMP280;45905;50.570;10.428;2023-05-13T00:25:00;98141.00;;;12.31
61977;BMP280;45905;50.570;10.428;2023-05-13T00:27:27;98136.25;;;12.28
61977;BMP280;45905;50.570;10.428;2023-05-13T00:29:54;98140.22;;;12.30
61977;BMP280;45905;50.570;10.428;2023-05-13T00:32:21;98145.31;;;12.30
61977;BMP280;45905;50.570;10.428;2023-05-13T00:34:49;98141.00;;;12.31
61977;BMP280;45905;50.570;10.428;2023-05-13T00:37:16;98144.50;;;12.30
61977;BMP280;45905;50.570;10.428;2023-05-13T00:39:43;98136.09;;;12.29
61977;BMP280;45905;50.570;10.428;2023-05-13T00:42:10;98141.31;;;12.28
61977;BMP280;45905;50.570;10.428;2023-05-13T00:44:38;98132.13;;;12.27
61977;BMP280;45905;50.570;10.428;2023-05-13T00:47:09;98135.44;;;12.27
61977;BMP280;45905;50.570;10.428;2023-05-13T00:49:37;98134.84;;;12.25
61977;BMP280;45905;50.570;10.428;2023-05-13T00:52:05;98132.31;;;12.25
61977;BMP280;45905;50.570;10.428;2023-05-13T00:54:32;98132.44;;;12.24
61977;BMP280;45905;50.570;10.428;2023-05-13T00:56:59;98137.19;;;12.19
61977;BMP280;45905;50.570;10.428;2023-05-13T00:59:29;98141.63;;;12.17
61977;BMP280;45905;50.570;10.428;2023-05-13T01:05:18;98145.31;;;12.15
61977;BMP280;45905;50.570;10.428;2023-05-13T01:08:34;98144.53;;;12.14
61977;BMP280;45905;50.570;10.428;2023-05-13T01:11:17;98136.25;;;12.12
61977;BMP280;45905;50.570;10.428;2023-05-13T01:13:52;98139.75;;;12.11
61977;BMP280;45905;50.570;10.428;2023-05-13T01:16:38;98143.56;;;12.07
61977;BMP280;45905;50.570;10.428;2023-05-13T01:22:06;98148.00;;;12.05
61977;BMP280;45905;50.570;10.428;2023-05-13T01:24:34;98150.06;;;12.02
61977;BMP280;45905;50.570;10.428;2023-05-13T01:27:04;98151.16;;;12.00
61977;BMP280;45905;50.570;10.428;2023-05-13T01:29:31;98145.63;;;11.96
61977;BMP280;45905;50.570;10.428;2023-05-13T01:32:02;98145.78;;;11.95
61977;BMP280;45905;50.570;10.428;2023-05-13T01:34:31;98145.78;;;11.95
61977;BMP280;45905;50.570;10.428;2023-05-13T01:36:59;98142.13;;;11.97
61977;BMP280;45905;50.570;10.428;2023-05-13T01:39:29;98141.66;;;11.94
61977;BMP280;45905;50.570;10.428;2023-05-13T01:41:59;98148.00;;;11.90
61977;BMP280;45905;50.570;10.428;2023-05-13T01:44:27;98154.34;;;11.86
61977;BMP280;45905;50.570;10.428;2023-05-13T01:46:54;98151.16;;;11.84
61977;BMP280;45905;50.570;10.428;2023-05-13T01:49:22;98155.44;;;11.83
61977;BMP280;45905;50.570;10.428;2023-05-13T01:51:49;98149.91;;;11.80
61977;BMP280;45905;50.570;10.428;2023-05-13T01:54:16;98153.69;;;11.76
61977;BMP280;45905;50.570;10.428;2023-05-13T01:56:49;98155.56;;;11.74
61977;BMP280;45905;50.570;10.428;2023-05-13T01:59:17;98157.31;;;11.74
61977;BMP280;45905;50.570;10.428;2023-05-13T02:01:44;98156.50;;;11.73
61977;BMP280;45905;50.570;10.428;2023-05-13T02:04:11;98156.69;;;11.72
61977;BMP280;45905;50.570;10.428;2023-05-13T02:06:40;98152.72;;;11.69
61977;BMP280;45905;50.570;10.428;2023-05-13T02:09:08;98154.63;;;11.67
61977;BMP280;45905;50.570;10.428;2023-05-13T02:11:38;98146.34;;;11.65
61977;BMP280;45905;50.570;10.428;2023-05-13T02:14:05;98148.28;;;11.63
61977;BMP280;45905;50.570;10.428;2023-05-13T02:16:33;98150.16;;;11.62
61977;BMP280;45905;50.570;10.428;2023-05-13T02:19:05;98153.00;;;11.59
61977;BMP280;45905;50.570;10.428;2023-05-13T02:21:32;98152.38;;;11.57
61977;BMP280;45905;50.570;10.428;2023-05-13T02:24:00;98155.09;;;11.55
61977;BMP280;45905;50.570;10.428;2023-05-13T02:26:28;98150.31;;;11.52
61977;BMP280;45905;50.570;10.428;2023-05-13T02:28:55;98153.63;;;11.53
61977;BMP280;45905;50.570;10.428;2023-05-13T02:31:22;98154.72;;;11.50
61977;BMP280;45905;50.570;10.428;2023-05-13T02:33:49;98148.22;;;11.48
61977;BMP280;45905;50.570;10.428;2023-05-13T02:36:16;98149.00;;;11.48
61977;BMP280;45905;50.570;10.428;2023-05-13T02:38:44;98146.00;;;11.45
61977;BMP280;45905;50.570;10.428;2023-05-13T02:41:14;98140.94;;;11.45
61977;BMP280;45905;50.570;10.428;2023-05-13T02:43:41;98142.69;;;11.44
61977;BMP280;45905;50.570;10.428;2023-05-13T02:46:08;98140.00;;;11.46
61977;BMP280;45905;50.570;10.428;2023-05-13T02:48:35;98138.25;;;11.46
61977;BMP280;45905;50.570;10.428;2023-05-13T02:51:02;98138.41;;;11.45
61977;BMP280;45905;50.570;10.428;2023-05-13T02:53:30;98137.59;;;11.44
61977;BMP280;45905;50.570;10.428;2023-05-13T02:56:01;98135.22;;;11.43
61977;BMP280;45905;50.570;10.428;2023-05-13T02:58:28;98142.31;;;11.40
61977;BMP280;45905;50.570;10.428;2023-05-13T03:00:57;98139.63;;;11.33
61977;BMP280;45905;50.570;10.428;2023-05-13T03:03:24;98145.00;;;11.30
61977;BMP280;45905;50.570;10.428;2023-05-13T03:05:52;98145.28;;;11.27
61977;BMP280;45905;50.570;10.428;2023-05-13T03:08:19;98134.50;;;11.25
61977;BMP280;45905;50.570;10.428;2023-05-13T03:10:47;98138.13;;;11.23
61977;BMP280;45905;50.570;10.428;2023-05-13T03:13:14;98139.22;;;11.21
61977;BMP280;45905;50.570;10.428;2023-05-13T03:15:41;98134.16;;;11.21
61977;BMP280;45905;50.570;10.428;2023-05-13T03:18:11;98134.16;;;11.21
61977;BMP280;45905;50.570;10.428;2023-05-13T03:20:38;98141.13;;;11.19
61977;BMP280;45905;50.570;10.428;2023-05-13T03:23:06;98140.50;;;11.17
61977;BMP280;45905;50.570;10.428;2023-05-13T03:25:34;98143.03;;;11.17
61977;BMP280;45905;50.570;10.428;2023-05-13T03:28:02;98141.28;;;11.17
61977;BMP280;45905;50.570;10.428;2023-05-13T03:30:34;98153.16;;;11.17
61977;BMP280;45905;50.570;10.428;2023-05-13T03:33:05;98142.38;;;11.15
61977;BMP280;45905;50.570;10.428;2023-05-13T03:35:32;98144.25;;;11.13
61977;BMP280;45905;50.570;10.428;2023-05-13T03:37:59;98144.88;;;11.07
61977;BMP280;45905;50.570;10.428;2023-05-13T03:40:26;98156.25;;;11.03
61977;BMP280;45905;50.570;10.428;2023-05-13T03:42:54;98153.09;;;11.01
61977;BMP280;45905;50.570;10.428;2023-05-13T03:45:23;98155.00;;;10.99
61977;BMP280;45905;50.570;10.428;2023-05-13T03:47:52;98156.72;;;10.99
61977;BMP280;45905;50.570;10.428;2023-05-13T03:50:22;98166.22;;;10.97
61977;BMP280;45905;50.570;10.428;2023-05-13T03:52:51;98163.81;;;10.95
61977;BMP280;45905;50.570;10.428;2023-05-13T03:55:19;98166.53;;;10.94
61977;BMP280;45905;50.570;10.428;2023-05-13T03:57:48;98171.09;;;10.90
61977;BMP280;45905;50.570;10.428;2023-05-13T04:00:17;98169.50;;;10.89
61977;BMP280;45905;50.570;10.428;2023-05-13T04:02:47;98174.88;;;10.86
61977;BMP280;45905;50.570;10.428;2023-05-13T04:05:14;98168.22;;;10.86
61977;BMP280;45905;50.570;10.428;2023-05-13T04:07:41;98166.66;;;10.85
61977;BMP280;45905;50.570;10.428;2023-05-13T04:10:09;98174.06;;;10.86
61977;BMP280;45905;50.570;10.428;2023-05-13T04:12:41;98172.34;;;10.86
61977;BMP280;45905;50.570;10.428;2023-05-13T04:15:08;98172.50;;;10.85
61977;BMP280;45905;50.570;10.428;2023-05-13T04:17:35;98169.31;;;10.83
61977;BMP280;45905;50.570;10.428;2023-05-13T04:20:03;98173.47;;;10.84
61977;BMP280;45905;50.570;10.428;2023-05-13T04:22:30;98172.81;;;10.82
61977;BMP280;45905;50.570;10.428;2023-05-13T04:24:58;98176.56;;;10.78
61977;BMP280;45905;50.570;10.428;2023-05-13T04:27:25;98183.22;;;10.79
61977;BMP280;45905;50.570;10.428;2023-05-13T04:30:02;98178.16;;;10.79
61977;BMP280;45905;50.570;10.428;2023-05-13T04:32:31;98184.97;;;10.79
61977;BMP280;45905;50.570;10.428;2023-05-13T04:34:59;98178.31;;;10.78
61977;BMP280;45905;50.570;10.428;2023-05-13T04:37:29;98182.56;;;10.77
61977;BMP280;45905;50.570;10.428;2023-05-13T04:39:59;98177.97;;;10.73
61977;BMP280;45905;50.570;10.428;2023-05-13T04:42:26;98186.22;;;10.75
61977;BMP280;45905;50.570;10.428;2023-05-13T04:44:54;98184.63;;;10.74
61977;BMP280;45905;50.570;10.428;2023-05-13T04:47:21;98191.44;;;10.73
61977;BMP280;45905;50.570;10.428;2023-05-13T04:49:49;98193.19;;;10.73
61977;BMP280;45905;50.570;10.428;2023-05-13T04:52:16;98190.78;;;10.71
61977;BMP280;45905;50.570;10.428;2023-05-13T04:54:43;98194.91;;;10.72
61977;BMP280;45905;50.570;10.428;2023-05-13T04:57:11;98189.69;;;10.74
61977;BMP280;45905;50.570;10.428;2023-05-13T04:59:38;98189.38;;;10.77
61977;BMP280;45905;50.570;10.428;2023-05-13T05:02:06;98192.44;;;10.80
61977;BMP280;45905;50.570;10.428;2023-05-13T05:04:34;98198.16;;;10.82
61977;BMP280;45905;50.570;10.428;2023-05-13T05:07:04;98187.06;;;10.83
61977;BMP280;45905;50.570;10.428;2023-05-13T05:09:31;98189.47;;;10.85
61977;BMP280;45905;50.570;10.428;2023-05-13T05:11:59;98192.63;;;10.86
61977;BMP280;45905;50.570;10.428;2023-05-13T05:14:29;98186.94;;;10.85
61977;BMP280;45905;50.570;10.428;2023-05-13T05:16:58;98194.84;;;10.89
61977;BMP280;45905;50.570;10.428;2023-05-13T05:19:25;98186.31;;;10.90
61977;BMP280;45905;50.570;10.428;2023-05-13T05:21:54;98186.16;;;10.92
61977;BMP280;45905;50.570;10.428;2023-05-13T05:24:21;98188.56;;;10.93
61977;BMP280;45905;50.570;10.428;2023-05-13T05:26:48;98199.31;;;10.95
61977;BMP280;45905;50.570;10.428;2023-05-13T05:29:16;98195.19;;;10.94
61977;BMP280;45905;50.570;10.428;2023-05-13T05:31:44;98195.84;;;10.96
61977;BMP280;45905;50.570;10.428;2023-05-13T05:34:11;98204.09;;;10.98
61977;BMP280;45905;50.570;10.428;2023-05-13T05:36:39;98198.75;;;11.01
61977;BMP280;45905;50.570;10.428;2023-05-13T05:39:06;98198.09;;;10.99
61977;BMP280;45905;50.570;10.428;2023-05-13T05:41:35;98200.31;;;11.02
61977;BMP280;45905;50.570;10.428;2023-05-13T05:44:02;98197.47;;;11.05
61977;BMP280;45905;50.570;10.428;2023-05-13T05:46:31;98199.72;;;11.08
61977;BMP280;45905;50.570;10.428;2023-05-13T05:48:59;98204.50;;;11.11
61977;BMP280;45905;50.570;10.428;2023-05-13T05:51:32;98202.56;;;11.13
61977;BMP280;45905;50.570;10.428;2023-05-13T05:54:01;98208.94;;;11.17
61977;BMP280;45905;50.570;10.428;2023-05-13T05:56:29;98191.06;;;11.18
61977;BMP280;45905;50.570;10.428;2023-05-13T05:58:56;98195.78;;;11.21
61977;BMP280;45905;50.570;10.428;2023-05-13T06:01:29;98197.91;;;11.25
61977;BMP280;45905;50.570;10.428;2023-05-13T06:04:03;98200.13;;;11.28
61977;BMP280;45905;50.570;10.428;2023-05-13T06:06:30;98190.50;;;11.32
61977;BMP280;45905;50.570;10.428;2023-05-13T06:08:59;98189.25;;;11.36
61977;BMP280;45905;50.570;10.428;2023-05-13T06:11:26;98192.13;;;11.41
61977;BMP280;45905;50.570;10.428;2023-05-13T06:13:53;98189.13;;;11.45
61977;BMP280;45905;50.570;10.428;2023-05-13T06:16:23;98188.81;;;11.48
61977;BMP280;45905;50.570;10.428;2023-05-13T06:18:50;98188.50;;;11.51
61977;BMP280;45905;50.570;10.428;2023-05-13T06:21:18;98190.09;;;11.52
61977;BMP280;45905;50.570;10.428;2023-05-13T06:23:48;98192.97;;;11.57
61977;BMP280;45905;50.570;10.428;2023-05-13T06:26:15;98197.59;;;11.61
61977;BMP280;45905;50.570;10.428;2023-05-13T06:28:42;98193.16;;;11.63
61977;BMP280;45905;50.570;10.428;2023-05-13T06:31:09;98196.50;;;11.63
61977;BMP280;45905;50.570;10.428;2023-05-13T06:33:36;98192.53;;;11.69
61977;BMP280;45905;50.570;10.428;2023-05-13T06:36:04;98195.22;;;11.75
61977;BMP280;45905;50.570;10.428;2023-05-13T06:38:31;98194.63;;;11.81
61977;BMP280;45905;50.570;10.428;2023-05-13T06:41:00;98193.66;;;11.82
61977;BMP280;45905;50.570;10.428;2023-05-13T06:43:31;98191.16;;;11.90
61977;BMP280;45905;50.570;10.428;2023-05-13T06:46:06;98198.28;;;11.94
61977;BMP280;45905;50.570;10.428;2023-05-13T06:48:33;98185.94;;;11.99
61977;BMP280;45905;50.570;10.428;2023-05-13T06:51:03;98187.34;;;12.01
61977;BMP280;45905;50.570;10.428;2023-05-13T06:53:31;98192.13;;;12.04
61977;BMP280;45905;50.570;10.428;2023-05-13T06:55:58;98189.28;;;12.07
61977;BMP280;45905;50.570;10.428;2023-05-13T06:58:25;98194.97;;;12.09
61977;BMP280;45905;50.570;10.428;2023-05-13T07:00:52;98194.50;;;12.14
61977;BMP280;45905;50.570;10.428;2023-05-13T07:03:19;98196.75;;;12.17
61977;BMP280;45905;50.570;10.428;2023-05-13T07:05:46;98193.06;;;12.19
61977;BMP280;45905;50.570;10.428;2023-05-13T07:08:13;98195.31;;;12.22
61977;BMP280;45905;50.570;10.428;2023-05-13T07:10:43;98186.91;;;12.21
61977;BMP280;45905;50.570;10.428;2023-05-13T07:13:11;98190.72;;;12.25
61977;BMP280;45905;50.570;10.428;2023-05-13T07:15:38;98183.41;;;12.30
61977;BMP280;45905;50.570;10.428;2023-05-13T07:18:05;98195.00;;;12.33
61977;BMP280;45905;50.570;10.428;2023-05-13T07:20:33;98189.28;;;12.39
61977;BMP280;45905;50.570;10.428;2023-05-13T07:23:00;98185.13;;;12.45
61977;BMP280;45905;50.570;10.428;2023-05-13T07:25:27;98171.16;;;12.49
61977;BMP280;45905;50.570;10.428;2023-05-13T07:27:54;98172.25;;;12.55
61977;BMP280;45905;50.570;10.428;2023-05-13T07:30:21;98173.38;;;12.60
61977;BMP280;45905;50.570;10.428;2023-05-13T07:32:49;98170.88;;;12.68
61977;BMP280;45905;50.570;10.428;2023-05-13T07:35:19;98166.06;;;12.73
61977;BMP280;45905;50.570;10.428;2023-05-13T07:37:47;98162.06;;;12.78
61977;BMP280;45905;50.570;10.428;2023-05-13T07:40:14;98157.97;;;12.85
61977;BMP280;45905;50.570;10.428;2023-05-13T07:42:41;98158.09;;;12.91
61977;BMP280;45905;50.570;10.428;2023-05-13T07:45:09;98156.31;;;12.99
61977;BMP280;45905;50.570;10.428;2023-05-13T07:47:36;98156.91;;;13.09
61977;BMP280;45905;50.570;10.428;2023-05-13T07:50:04;98155.47;;;13.15
61977;BMP280;45905;50.570;10.428;2023-05-13T07:52:32;98155.41;;;13.22
61977;BMP280;45905;50.570;10.428;2023-05-13T07:54:59;98150.31;;;13.30
61977;BMP280;45905;50.570;10.428;2023-05-13T07:57:27;98145.81;;;13.40
61977;BMP280;45905;50.570;10.428;2023-05-13T07:59:54;98142.44;;;13.47
61977;BMP280;45905;50.570;10.428;2023-05-13T08:02:21;98141.25;;;13.57
61977;BMP280;45905;50.570;10.428;2023-05-13T08:04:49;98144.06;;;13.70
61977;BMP280;45905;50.570;10.428;2023-05-13T08:07:16;98142.38;;;13.85
61977;BMP280;45905;50.570;10.428;2023-05-13T08:09:43;98149.31;;;13.98
61977;BMP280;45905;50.570;10.428;2023-05-13T08:12:10;98131.41;;;14.06
61977;BMP280;45905;50.570;10.428;2023-05-13T08:14:37;98138.19;;;14.13
61977;BMP280;45905;50.570;10.428;2023-05-13T08:17:05;98124.25;;;14.24
61977;BMP280;45905;50.570;10.428;2023-05-13T08:19:34;98130.25;;;14.31
61977;BMP280;45905;50.570;10.428;2023-05-13T08:22:02;98128.16;;;14.34
61977;BMP280;45905;50.570;10.428;2023-05-13T08:24:29;98130.47;;;14.43
61977;BMP280;45905;50.570;10.428;2023-05-13T08:26:56;98131.34;;;14.50
61977;BMP280;45905;50.570;10.428;2023-05-13T08:29:23;98123.28;;;14.61
61977;BMP280;45905;50.570;10.428;2023-05-13T08:31:51;98121.28;;;14.70
61977;BMP280;45905;50.570;10.428;2023-05-13T08:34:19;98113.34;;;14.80
61977;BMP280;45905;50.570;10.428;2023-05-13T08:36:46;98116.88;;;14.93
61977;BMP280;45905;50.570;10.428;2023-05-13T08:39:14;98116.19;;;15.13
61977;BMP280;45905;50.570;10.428;2023-05-13T08:41:43;98111.56;;;15.37
61977;BMP280;45905;50.570;10.428;2023-05-13T08:44:11;98110.03;;;15.56
61977;BMP280;45905;50.570;10.428;2023-05-13T08:46:43;98104.41;;;15.67
61977;BMP280;45905;50.570;10.428;2023-05-13T08:49:14;98108.19;;;15.71
61977;BMP280;45905;50.570;10.428;2023-05-13T08:51:41;98115.69;;;15.72
61977;BMP280;45905;50.570;10.428;2023-05-13T08:54:10;98115.50;;;15.74
61977;BMP280;45905;50.570;10.428;2023-05-13T08:56:37;98106.50;;;15.78
61977;BMP280;45905;50.570;10.428;2023-05-13T08:59:04;98111.91;;;15.89
61977;BMP280;45905;50.570;10.428;2023-05-13T09:01:32;98105.09;;;15.96
61977;BMP280;45905;50.570;10.428;2023-05-13T09:04:05;98121.06;;;15.98
61977;BMP280;45905;50.570;10.428;2023-05-13T09:06:34;98108.53;;;16.03
61977;BMP280;45905;50.570;10.428;2023-05-13T09:09:02;98107.03;;;16.08
61977;BMP280;45905;50.570;10.428;2023-05-13T09:11:29;98103.31;;;16.10
61977;BMP280;45905;50.570;10.428;2023-05-13T09:14:01;98096.50;;;16.17
61977;BMP280;45905;50.570;10.428;2023-05-13T09:16:30;98093.38;;;16.22
61977;BMP280;45905;50.570;10.428;2023-05-13T09:19:04;98101.28;;;16.26
61977;BMP280;45905;50.570;10.428;2023-05-13T09:21:33;98101.50;;;16.31
61977;BMP280;45905;50.570;10.428;2023-05-13T09:24:14;98101.75;;;16.36
61977;BMP280;45905;50.570;10.428;2023-05-13T09:26:47;98103.38;;;16.43
61977;BMP280;45905;50.570;10.428;2023-05-13T09:29:24;98101.50;;;16.58
61977;BMP280;45905;50.570;10.428;2023-05-13T09:31:55;98093.88;;;16.64
61977;BMP280;45905;50.570;10.428;2023-05-13T09:34:31;98097.28;;;16.71
61977;BMP280;45905;50.570;10.428;2023-05-13T09:37:04;98096.50;;;16.77
61977;BMP280;45905;50.570;10.428;2023-05-13T09:39:38;98097.75;;;16.87
61977;BMP280;45905;50.570;10.428;2023-05-13T09:42:18;98094.28;;;16.95
61977;BMP280;45905;50.570;10.428;2023-05-13T09:44:46;98105.31;;;17.01
61977;BMP280;45905;50.570;10.428;2023-05-13T09:47:15;98097.66;;;17.08
61977;BMP280;45905;50.570;10.428;2023-05-13T09:49:44;98098.69;;;17.13
61977;BMP280;45905;50.570;10.428;2023-05-13T09:52:15;98085.38;;;17.24
61977;BMP280;45905;50.570;10.428;2023-05-13T09:54:43;98091.50;;;17.36
61977;BMP280;45905;50.570;10.428;2023-05-13T09:57:12;98091.53;;;17.42
61977;BMP280;45905;50.570;10.428;2023-05-13T09:59:40;98093.50;;;17.46
61977;BMP280;45905;50.570;10.428;2023-05-13T10:02:08;98092.34;;;17.49
61977;BMP280;45905;50.570;10.428;2023-05-13T10:04:36;98092.34;;;17.55
61977;BMP280;45905;50.570;10.428;2023-05-13T10:07:05;98088.63;;;17.64
61977;BMP280;45905;50.570;10.428;2023-05-13T10:09:35;98083.13;;;17.73
61977;BMP280;45905;50.570;10.428;2023-05-13T10:12:06;98084.09;;;17.78
61977;BMP280;45905;50.570;10.428;2023-05-13T10:14:38;98090.25;;;17.84
61977;BMP280;45905;50.570;10.428;2023-05-13T10:17:06;98096.56;;;17.88
61977;BMP280;45905;50.570;10.428;2023-05-13T10:19:35;98097.38;;;17.88
61977;BMP280;45905;50.570;10.428;2023-05-13T10:22:03;98100.16;;;17.93
61977;BMP280;45905;50.570;10.428;2023-05-13T10:24:33;98085.16;;;17.96
61977;BMP280;45905;50.570;10.428;2023-05-13T10:27:05;98076.88;;;18.01
61977;BMP280;45905;50.570;10.428;2023-05-13T10:29:36;98086.34;;;18.13
61977;BMP280;45905;50.570;10.428;2023-05-13T10:32:17;98083.97;;;18.24
61977;BMP280;45905;50.570;10.428;2023-05-13T10:34:48;98084.38;;;18.34
61977;BMP280;45905;50.570;10.428;2023-05-13T10:40:30;98071.91;;;18.50
61977;BMP280;45905;50.570;10.428;2023-05-13T10:43:18;98072.50;;;18.58
61977;BMP280;45905;50.570;10.428;2023-05-13T10:45:51;98063.00;;;18.65
61977;BMP280;45905;50.570;10.428;2023-05-13T10:48:22;98062.59;;;18.68
61977;BMP280;45905;50.570;10.428;2023-05-13T10:51:13;98071.09;;;18.75
61977;BMP280;45905;50.570;10.428;2023-05-13T10:53:48;98069.34;;;18.82
61977;BMP280;45905;50.570;10.428;2023-05-13T10:56:19;98067.91;;;18.92
61977;BMP280;45905;50.570;10.428;2023-05-13T10:59:03;98061.19;;;18.97
61977;BMP280;45905;50.570;10.428;2023-05-13T11:01:36;98079.31;;;19.02
61977;BMP280;45905;50.570;10.428;2023-05-13T11:04:15;98068.81;;;19.10
61977;BMP280;45905;50.570;10.428;2023-05-13T11:06:48;98067.59;;;19.19
61977;BMP280;45905;50.570;10.428;2023-05-13T11:11:58;98063.59;;;19.29
61977;BMP280;45905;50.570;10.428;2023-05-13T11:14:26;98059.44;;;19.34
61977;BMP280;45905;50.570;10.428;2023-05-13T11:19:38;98061.19;;;19.40
61977;BMP280;45905;50.570;10.428;2023-05-13T11:22:18;98060.00;;;19.43
61977;BMP280;45905;50.570;10.428;2023-05-13T11:25:07;98055.47;;;19.38
61977;BMP280;45905;50.570;10.428;2023-05-13T11:27:40;98069.28;;;19.37
61977;BMP280;45905;50.570;10.428;2023-05-13T11:30:25;98059.84;;;19.31
61977;BMP280;45905;50.570;10.428;2023-05-13T11:32:57;98054.13;;;19.29
61977;BMP280;45905;50.570;10.428;2023-05-13T11:35:30;98058.06;;;19.32
61977;BMP280;45905;50.570;10.428;2023-05-13T11:38:00;98063.56;;;19.35
61977;BMP280;45905;50.570;10.428;2023-05-13T11:40:33;98051.69;;;19.41
61977;BMP280;45905;50.570;10.428;2023-05-13T11:43:01;98057.78;;;19.46
61977;BMP280;45905;50.570;10.428;2023-05-13T11:45:31;98055.22;;;19.46
61977;BMP280;45905;50.570;10.428;2023-05-13T11:48:21;98054.06;;;19.42
61977;BMP280;45905;50.570;10.428;2023-05-13T11:50:49;98063.34;;;19.43
61977;BMP280;45905;50.570;10.428;2023-05-13T11:53:21;98056.78;;;19.47
61977;BMP280;45905;50.570;10.428;2023-05-13T11:55:48;98052.19;;;19.55
61977;BMP280;45905;50.570;10.428;2023-05-13T11:58:16;98059.28;;;19.66
61977;BMP280;45905;50.570;10.428;2023-05-13T12:00:43;98040.06;;;19.75
61977;BMP280;45905;50.570;10.428;2023-05-13T12:03:12;98044.16;;;19.82
61977;BMP280;45905;50.570;10.428;2023-05-13T12:05:42;98052.78;;;19.94
61977;BMP280;45905;50.570;10.428;2023-05-13T12:08:12;98064.38;;;20.03
61977;BMP280;45905;50.570;10.428;2023-05-13T12:10:43;98048.50;;;20.06
61977;BMP280;45905;50.570;10.428;2023-05-13T12:13:11;98046.72;;;20.06
61977;BMP280;45905;50.570;10.428;2023-05-13T12:15:40;98044.59;;;20.03
61977;BMP280;45905;50.570;10.428;2023-05-13T12:18:07;98056.91;;;19.95
61977;BMP280;45905;50.570;10.428;2023-05-13T12:20:34;98056.59;;;19.85
61977;BMP280;45905;50.570;10.428;2023-05-13T12:23:02;98065.34;;;19.78
61977;BMP280;45905;50.570;10.428;2023-05-13T12:25:44;98064.22;;;19.68
61977;BMP280;45905;50.570;10.428;2023-05-13T12:28:23;98068.13;;;19.70
61977;BMP280;45905;50.570;10.428;2023-05-13T12:30:59;98065.75;;;19.75
61977;BMP280;45905;50.570;10.428;2023-05-13T12:33:39;98066.69;;;19.80
61977;BMP280;45905;50.570;10.428;2023-05-13T12:36:27;98058.31;;;19.91
61977;BMP280;45905;50.570;10.428;2023-05-13T12:39:10;98057.66;;;20.02
61977;BMP280;45905;50.570;10.428;2023-05-13T12:41:39;98055.53;;;20.16
61977;BMP280;45905;50.570;10.428;2023-05-13T12:44:14;98047.34;;;20.25
61977;BMP280;45905;50.570;10.428;2023-05-13T12:46:52;98059.00;;;20.28
61977;BMP280;45905;50.570;10.428;2023-05-13T12:49:20;98059.16;;;20.33
61977;BMP280;45905;50.570;10.428;2023-05-13T12:51:48;98053.81;;;20.34
61977;BMP280;45905;50.570;10.428;2023-05-13T12:54:17;98057.38;;;20.33
61977;BMP280;45905;50.570;10.428;2023-05-13T12:56:44;98064.88;;;20.35
61977;BMP280;45905;50.570;10.428;2023-05-13T12:59:12;98067.44;;;20.35
61977;BMP280;45905;50.570;10.428;2023-05-13T13:01:40;98062.31;;;20.35
61977;BMP280;45905;50.570;10.428;2023-05-13T13:04:08;98077.16;;;20.33
61977;BMP280;45905;50.570;10.428;2023-05-13T13:06:36;98085.16;;;20.25
61977;BMP280;45905;50.570;10.428;2023-05-13T13:09:03;98080.06;;;20.19
61977;BMP280;45905;50.570;10.428;2023-05-13T13:11:31;98085.63;;;20.16
61977;BMP280;45905;50.570;10.428;2023-05-13T13:13:58;98089.63;;;20.12
61977;BMP280;45905;50.570;10.428;2023-05-13T13:16:26;98088.06;;;20.05
61977;BMP280;45905;50.570;10.428;2023-05-13T13:18:53;98096.03;;;19.97
61977;BMP280;45905;50.570;10.428;2023-05-13T13:21:25;98093.31;;;19.92
61977;BMP280;45905;50.570;10.428;2023-05-13T13:23:52;98092.00;;;19.83
61977;BMP280;45905;50.570;10.428;2023-05-13T13:26:21;98090.25;;;19.77
61977;BMP280;45905;50.570;10.428;2023-05-13T13:28:49;98090.28;;;19.71
61977;BMP280;45905;50.570;10.428;2023-05-13T13:31:16;98093.28;;;19.68
61977;BMP280;45905;50.570;10.428;2023-05-13T13:33:43;98094.28;;;19.67
61977;BMP280;45905;50.570;10.428;2023-05-13T13:36:10;98096.66;;;19.68
61977;BMP280;45905;50.570;10.428;2023-05-13T13:38:37;98094.47;;;19.66
61977;BMP280;45905;50.570;10.428;2023-05-13T13:41:04;98101.44;;;19.59
61977;BMP280;45905;50.570;10.428;2023-05-13T13:43:32;98095.72;;;19.57
61977;BMP280;45905;50.570;10.428;2023-05-13T13:45:59;98106.19;;;19.49
61977;BMP280;45905;50.570;10.428;2023-05-13T13:48:26;98101.50;;;19.40
61977;BMP280;45905;50.570;10.428;2023-05-13T13:50:53;98089.25;;;19.35
61977;BMP280;45905;50.570;10.428;2023-05-13T13:53:21;98090.66;;;19.31
61977;BMP280;45905;50.570;10.428;2023-05-13T13:55:48;98085.53;;;19.31
61977;BMP280;45905;50.570;10.428;2023-05-13T13:58:15;98080.59;;;19.30
61977;BMP280;45905;50.570;10.428;2023-05-13T14:00:42;98085.53;;;19.31
61977;BMP280;45905;50.570;10.428;2023-05-13T14:03:09;98085.91;;;19.35
61977;BMP280;45905;50.570;10.428;2023-05-13T14:05:36;98084.13;;;19.35
61977;BMP280;45905;50.570;10.428;2023-05-13T14:08:04;98081.19;;;19.32
61977;BMP280;45905;50.570;10.428;2023-05-13T14:10:31;98087.31;;;19.31
61977;BMP280;45905;50.570;10.428;2023-05-13T14:12:58;98083.56;;;19.33
61977;BMP280;45905;50.570;10.428;2023-05-13T14:15:25;98088.06;;;19.38
61977;BMP280;45905;50.570;10.428;2023-05-13T14:17:55;98088.44;;;19.41
61977;BMP280;45905;50.570;10.428;2023-05-13T14:20:23;98087.03;;;19.45
61977;BMP280;45905;50.570;10.428;2023-05-13T14:22:50;98086.03;;;19.46